Evansville, Minnesota
Current Conditions -  °F | °C
As of 6:14 AM on Saturday 20 Dec 2014 (Local Time) from KY63 Reporting Station
Overcast Overcast  
Wind Chill: 18°   Ceiling: 500
Heat Index: 28°   Visibility: 7mi
Dew Point: 28°   Wind: 13mph
Humidity: 96%   Direction: 170°S
Pressure: 30.04"   Gusts: NA
Location:  46°N, 95.68°W
Report Text: KY63 201214Z AUTO 17011KT 7SM OVC005 M02/M02 A3004 RMK AO2 T10201025
Loading
Personal Weather Stations






























Interactive Weather Map New forecast layout! Learn more

10-Day Weather Forecast

Advertisements
Track Severe Weather on mobile